Terminal Aerodrome Forecast
Issued by NWS Wichita, KS

Home | Current Version | Previous Version | Text Only | Print | Product List | Glossary On
Versions: 1 2 3 4 5 6 7 8 9 10 11 12 13 14 15
136
FTUS43 KICT 040520
TAFICT
TAF
KICT 040520Z 0406/0506 28007KT P6SM SKC
     FM041300 35012KT P6SM SKC
     FM041600 36012G20KT P6SM FEW060
     FM050000 01010KT P6SM SKC
     FM050300 VRB05KT P6SM SKC=

USA.gov is the U.S. government's official web portal to all federal, state and local government web resources and services.